createdAt,value
2023-09-22T00:00:12.261Z,100.00
2023-09-22T00:02:39.687Z,100.00
2023-09-22T00:05:08.727Z,100.00
2023-09-22T00:07:35.509Z,100.00
2023-09-22T00:10:02.410Z,100.00
2023-09-22T00:12:33.341Z,100.00
2023-09-22T00:15:00.190Z,100.00
2023-09-22T00:17:29.624Z,100.00
2023-09-22T00:19:56.492Z,100.00
2023-09-22T00:22:23.689Z,100.00
2023-09-22T00:24:51.997Z,100.00
2023-09-22T00:27:18.949Z,100.00
2023-09-22T00:29:45.677Z,100.00
2023-09-22T00:32:13.466Z,100.00
2023-09-22T00:34:40.586Z,100.00
2023-09-22T00:37:08.560Z,100.00
2023-09-22T00:39:35.396Z,100.00
2023-09-22T00:42:03.412Z,100.00
2023-09-22T00:44:30.968Z,100.00
2023-09-22T00:46:59.692Z,100.00
2023-09-22T00:49:26.636Z,100.00
2023-09-22T00:51:53.703Z,100.00
2023-09-22T00:54:21.081Z,100.00
2023-09-22T00:56:48.490Z,100.00
2023-09-22T00:59:16.459Z,100.00
2023-09-22T01:01:43.798Z,100.00
2023-09-22T01:04:15.784Z,100.00
2023-09-22T01:06:46.184Z,100.00
2023-09-22T01:09:13.393Z,100.00
2023-09-22T01:11:40.712Z,100.00
2023-09-22T01:14:07.400Z,100.00
2023-09-22T01:16:34.042Z,100.00
2023-09-22T01:19:00.866Z,100.00
2023-09-22T01:21:32.921Z,100.00
2023-09-22T01:23:59.627Z,100.00
2023-09-22T01:26:26.376Z,100.00
2023-09-22T01:28:54.278Z,100.00
2023-09-22T01:31:21.148Z,100.00
2023-09-22T01:33:48.069Z,100.00
2023-09-22T01:36:15.178Z,100.00
2023-09-22T01:38:42.087Z,100.00
2023-09-22T01:41:09.099Z,100.00
2023-09-22T01:43:36.558Z,100.00
2023-09-22T01:46:03.524Z,100.00
2023-09-22T01:48:30.402Z,100.00
2023-09-22T01:51:02.022Z,100.00
2023-09-22T01:53:28.906Z,100.00
2023-09-22T01:55:55.695Z,100.00
2023-09-22T01:58:22.442Z,100.00
2023-09-22T02:00:49.723Z,100.00
2023-09-22T02:03:16.813Z,100.00
2023-09-22T02:05:43.947Z,100.00
2023-09-22T02:08:10.946Z,100.00
2023-09-22T02:10:37.586Z,100.00
2023-09-22T02:13:05.720Z,100.00
2023-09-22T02:15:33.856Z,100.00
2023-09-22T02:18:00.572Z,100.00
2023-09-22T02:20:27.236Z,100.00
2023-09-22T02:22:57.958Z,100.00
2023-09-22T02:25:25.225Z,100.00
2023-09-22T02:27:56.376Z,100.00
2023-09-22T02:30:23.737Z,100.00
2023-09-22T02:32:51.513Z,100.00
2023-09-22T02:35:19.719Z,100.00
2023-09-22T02:37:46.758Z,100.00
2023-09-22T02:40:14.806Z,100.00
2023-09-22T02:42:42.121Z,100.00
2023-09-22T02:45:12.531Z,100.00
2023-09-22T02:47:41.683Z,100.00
2023-09-22T02:50:12.154Z,100.00
2023-09-22T02:52:40.653Z,100.00
2023-09-22T02:55:13.379Z,100.00
2023-09-22T02:57:43.832Z,100.00
2023-09-22T03:00:16.477Z,100.00
2023-09-22T03:02:43.786Z,100.00
2023-09-22T03:05:11.593Z,100.00
2023-09-22T03:07:39.093Z,100.00
2023-09-22T03:10:07.847Z,100.00
2023-09-22T03:12:39.618Z,100.00
2023-09-22T03:15:10.593Z,100.00
2023-09-22T03:17:38.264Z,100.00
2023-09-22T03:20:08.512Z,100.00
2023-09-22T03:22:36.932Z,100.00
2023-09-22T03:25:09.598Z,100.00
2023-09-22T03:27:36.418Z,100.00
2023-09-22T03:30:04.650Z,100.00
2023-09-22T03:32:31.240Z,100.00
2023-09-22T03:34:58.763Z,100.00
2023-09-22T03:37:30.041Z,100.00
2023-09-22T03:39:58.093Z,100.00
2023-09-22T03:42:26.423Z,100.00
2023-09-22T03:44:53.216Z,100.00
2023-09-22T03:47:19.909Z,100.00
2023-09-22T03:49:48.200Z,100.00
2023-09-22T03:52:15.966Z,100.00
2023-09-22T03:54:42.739Z,100.00
2023-09-22T03:57:09.380Z,100.00
2023-09-22T03:59:36.053Z,100.00
2023-09-22T04:02:02.661Z,100.00
2023-09-22T04:04:31.535Z,100.00
2023-09-22T04:06:59.421Z,100.00
2023-09-22T04:09:26.839Z,100.00
2023-09-22T04:11:53.471Z,100.00
2023-09-22T04:14:22.462Z,100.00
2023-09-22T04:16:49.112Z,100.00
2023-09-22T04:19:16.076Z,100.00
2023-09-22T04:21:47.378Z,100.00
2023-09-22T04:24:16.307Z,100.00
2023-09-22T04:26:45.921Z,100.00
2023-09-22T04:29:13.129Z,100.00
2023-09-22T04:31:40.070Z,100.00
2023-09-22T04:34:06.865Z,100.00
2023-09-22T04:36:33.893Z,100.00
2023-09-22T04:39:01.544Z,100.00
2023-09-22T04:41:28.226Z,100.00
2023-09-22T04:43:57.649Z,100.00
2023-09-22T04:46:24.336Z,100.00
2023-09-22T04:48:52.375Z,100.00
2023-09-22T04:51:20.806Z,100.00
2023-09-22T04:53:48.260Z,100.00
2023-09-22T04:56:14.886Z,100.00
2023-09-22T04:58:41.791Z,100.00
2023-09-22T05:01:09.739Z,100.00
2023-09-22T05:03:36.821Z,100.00
2023-09-22T05:06:07.793Z,100.00
2023-09-22T05:08:35.058Z,100.00
2023-09-22T05:11:06.843Z,100.00
2023-09-22T05:13:35.153Z,100.00
2023-09-22T05:16:07.491Z,100.00
2023-09-22T05:18:36.010Z,100.00
2023-09-22T05:21:03.721Z,100.00
2023-09-22T05:23:31.085Z,100.00
2023-09-22T05:25:58.905Z,100.00
2023-09-22T05:28:25.559Z,100.00
2023-09-22T05:30:52.253Z,100.00
2023-09-22T05:33:18.806Z,100.00
2023-09-22T05:35:45.767Z,100.00
2023-09-22T05:38:12.910Z,100.00
2023-09-22T05:40:39.726Z,100.00
2023-09-22T05:43:06.562Z,100.00
2023-09-22T05:45:33.352Z,100.00
2023-09-22T05:48:00.491Z,100.00
2023-09-22T05:50:27.305Z,100.00
2023-09-22T05:52:53.898Z,100.00
2023-09-22T05:55:20.963Z,100.00
2023-09-22T05:57:48.396Z,100.00
2023-09-22T06:00:18.513Z,100.00
2023-09-22T06:02:52.258Z,100.00
2023-09-22T06:05:25.995Z,100.00
2023-09-22T06:07:53.209Z,100.00
2023-09-22T06:10:19.933Z,100.00
2023-09-22T06:12:46.687Z,100.00
2023-09-22T06:15:17.419Z,100.00
2023-09-22T06:17:44.674Z,100.00
2023-09-22T06:20:17.138Z,100.00
2023-09-22T06:22:46.098Z,100.00
2023-09-22T06:25:14.943Z,100.00
2023-09-22T06:27:45.324Z,100.00
2023-09-22T06:30:13.852Z,100.00
2023-09-22T06:32:45.656Z,100.00
2023-09-22T06:35:14.628Z,100.00
2023-09-22T06:37:42.443Z,100.00
2023-09-22T06:40:14.753Z,100.00
2023-09-22T06:42:43.391Z,100.00
2023-09-22T06:45:13.826Z,100.00
2023-09-22T06:47:45.103Z,100.00
2023-09-22T06:50:13.533Z,100.00
2023-09-22T06:52:42.012Z,100.00
2023-09-22T06:55:15.578Z,100.00
2023-09-22T06:57:42.884Z,100.00
2023-09-22T07:00:17.217Z,100.00
2023-09-22T07:02:50.764Z,100.00
2023-09-22T07:05:18.501Z,100.00
2023-09-22T07:07:45.779Z,100.00
2023-09-22T07:10:12.818Z,100.00
2023-09-22T07:12:40.146Z,100.00
2023-09-22T07:15:08.215Z,100.00
2023-09-22T07:17:36.016Z,100.00
2023-09-22T07:20:05.360Z,100.00
2023-09-22T07:22:36.570Z,100.00
2023-09-22T07:25:05.528Z,100.00
2023-09-22T07:27:32.530Z,100.00
2023-09-22T07:30:00.400Z,100.00
2023-09-22T07:32:27.054Z,100.00
2023-09-22T07:34:54.734Z,100.00
2023-09-22T07:37:21.808Z,100.00
2023-09-22T07:39:51.532Z,100.00
2023-09-22T07:42:18.223Z,100.00
2023-09-22T07:44:45.047Z,100.00
2023-09-22T07:47:11.733Z,100.00
2023-09-22T07:49:38.979Z,100.00
2023-09-22T07:52:05.997Z,100.00
2023-09-22T07:54:34.213Z,100.00
2023-09-22T07:57:00.893Z,100.00
2023-09-22T07:59:29.965Z,100.00
2023-09-22T08:01:57.670Z,100.00
2023-09-22T08:04:25.150Z,100.00
2023-09-22T08:06:51.913Z,100.00
2023-09-22T08:09:19.021Z,100.00
2023-09-22T08:11:45.723Z,100.00
2023-09-22T08:14:13.622Z,100.00
2023-09-22T08:16:40.857Z,100.00
2023-09-22T08:19:13.915Z,100.00
2023-09-22T08:21:40.828Z,100.00
2023-09-22T08:24:09.020Z,100.00
2023-09-22T08:26:36.113Z,100.00
2023-09-22T08:29:05.759Z,100.00
2023-09-22T08:31:32.761Z,100.00
2023-09-22T08:33:59.491Z,100.00
2023-09-22T08:36:26.513Z,100.00
2023-09-22T08:38:53.222Z,100.00
2023-09-22T08:41:20.976Z,100.00
2023-09-22T08:43:48.004Z,100.00
2023-09-22T08:46:15.770Z,100.00
2023-09-22T08:48:42.837Z,100.00
2023-09-22T08:51:10.907Z,100.00
2023-09-22T08:53:41.046Z,100.00
2023-09-22T08:56:08.043Z,100.00
2023-09-22T08:58:35.695Z,100.00
2023-09-22T09:01:03.978Z,100.00
2023-09-22T09:03:32.724Z,99.34
2023-09-22T09:06:08.073Z,100.00
2023-09-22T09:08:37.829Z,100.00
2023-09-22T09:11:09.341Z,99.03
2023-09-22T09:13:36.473Z,100.00
2023-09-22T09:16:07.968Z,100.00
2023-09-22T09:18:35.544Z,97.79
2023-09-22T09:21:16.968Z,98.06
2023-09-22T09:23:57.757Z,96.91
2023-09-22T09:26:26.038Z,95.16
2023-09-22T09:28:52.636Z,95.51
2023-09-22T09:31:19.933Z,93.51
2023-09-22T09:33:55.309Z,97.35
2023-09-22T09:36:22.185Z,93.25
2023-09-22T09:38:48.850Z,89.95
2023-09-22T09:41:20.598Z,91.36
2023-09-22T09:43:48.384Z,91.30
2023-09-22T09:46:17.842Z,91.71
2023-09-22T09:48:47.232Z,89.27
2023-09-22T09:51:19.842Z,90.30
2023-09-22T09:53:47.685Z,89.61
2023-09-22T09:56:15.801Z,89.09
2023-09-22T09:58:43.565Z,95.31
2023-09-22T10:01:10.779Z,89.23
2023-09-22T10:03:41.400Z,90.01
2023-09-22T10:06:12.332Z,90.18
2023-09-22T10:08:39.182Z,92.04
2023-09-22T10:11:08.516Z,91.74
2023-09-22T10:13:39.605Z,87.72
2023-09-22T10:16:12.693Z,91.78
2023-09-22T10:18:52.777Z,92.83
2023-09-22T10:21:31.616Z,89.19
2023-09-22T10:24:25.328Z,91.51
2023-09-22T10:27:15.936Z,92.18
2023-09-22T10:29:44.623Z,89.67
2023-09-22T10:32:20.573Z,87.23
2023-09-22T10:35:04.741Z,89.73
2023-09-22T10:37:34.881Z,92.18
2023-09-22T10:40:20.029Z,92.99
2023-09-22T10:42:51.332Z,82.65
2023-09-22T10:45:22.516Z,88.01
2023-09-22T10:47:51.248Z,84.29
2023-09-22T10:50:23.739Z,84.45
2023-09-22T10:53:04.867Z,87.90
2023-09-22T10:55:36.133Z,89.08
2023-09-22T10:58:07.879Z,87.07
2023-09-22T11:00:46.966Z,85.13
2023-09-22T11:03:15.846Z,83.88
2023-09-22T11:05:44.618Z,82.54
2023-09-22T11:08:19.345Z,81.47
2023-09-22T11:10:50.667Z,80.30
2023-09-22T11:13:18.152Z,87.12
2023-09-22T11:15:47.546Z,81.96
2023-09-22T11:18:34.949Z,84.03
2023-09-22T11:21:06.415Z,81.31
2023-09-22T11:23:42.387Z,81.44
2023-09-22T11:26:15.769Z,78.54
2023-09-22T11:28:50.276Z,82.32
2023-09-22T11:31:21.266Z,83.66
2023-09-22T11:34:00.850Z,77.58
2023-09-22T11:36:27.832Z,82.87
2023-09-22T11:38:55.761Z,84.87
2023-09-22T11:41:24.281Z,79.15
2023-09-22T11:43:53.405Z,80.53
2023-09-22T11:46:23.394Z,81.69
2023-09-22T11:48:57.647Z,78.53
2023-09-22T11:51:43.229Z,78.41
2023-09-22T11:54:12.062Z,80.24
2023-09-22T11:56:38.821Z,77.96
2023-09-22T11:59:09.753Z,81.26
2023-09-22T12:01:37.529Z,74.74
2023-09-22T12:04:07.481Z,76.44
2023-09-22T12:06:34.489Z,77.34
2023-09-22T12:09:01.134Z,79.02
2023-09-22T12:11:28.083Z,81.19
2023-09-22T12:13:54.775Z,83.92
2023-09-22T12:16:21.846Z,84.53
2023-09-22T12:18:49.539Z,82.30
2023-09-22T12:21:16.558Z,81.39
2023-09-22T12:23:43.813Z,80.51
2023-09-22T12:26:11.200Z,82.20
2023-09-22T12:28:38.664Z,83.27
2023-09-22T12:31:05.390Z,83.94
2023-09-22T12:33:32.359Z,79.11
2023-09-22T12:35:58.940Z,76.98
2023-09-22T12:38:26.230Z,79.00
2023-09-22T12:40:53.217Z,80.20
2023-09-22T12:43:19.902Z,82.35
2023-09-22T12:45:46.747Z,80.86
2023-09-22T12:48:13.360Z,76.18
2023-09-22T12:50:40.551Z,81.11
2023-09-22T12:53:07.445Z,78.79
2023-09-22T12:55:38.003Z,82.65
2023-09-22T12:58:05.186Z,80.40
2023-09-22T13:00:40.678Z,81.25
2023-09-22T13:03:08.079Z,72.03
2023-09-22T13:05:34.952Z,70.88
2023-09-22T13:08:01.652Z,67.48
2023-09-22T13:10:28.468Z,71.22
2023-09-22T13:12:55.224Z,76.88
2023-09-22T13:15:23.892Z,76.79
2023-09-22T13:17:51.879Z,74.81
2023-09-22T13:20:19.088Z,76.34
2023-09-22T13:22:45.874Z,77.42
2023-09-22T13:25:12.553Z,72.95
2023-09-22T13:27:42.874Z,71.08
2023-09-22T13:30:11.264Z,71.14
2023-09-22T13:32:41.524Z,76.89
2023-09-22T13:35:09.022Z,76.86
2023-09-22T13:37:35.663Z,75.91
2023-09-22T13:40:02.448Z,70.44
2023-09-22T13:42:29.034Z,77.54
2023-09-22T13:44:55.890Z,76.63
2023-09-22T13:47:22.710Z,76.10
2023-09-22T13:49:53.190Z,73.11
2023-09-22T13:52:20.973Z,73.95
2023-09-22T13:54:47.664Z,66.28
2023-09-22T13:57:14.884Z,66.81
2023-09-22T13:59:41.606Z,74.65
2023-09-22T14:02:08.356Z,68.25
2023-09-22T14:04:35.168Z,67.04
2023-09-22T14:07:01.891Z,73.29
2023-09-22T14:09:29.439Z,70.46
2023-09-22T14:11:56.080Z,72.66
2023-09-22T14:14:22.713Z,78.00
2023-09-22T14:16:49.432Z,72.93
2023-09-22T14:19:16.551Z,75.98
2023-09-22T14:21:43.413Z,74.80
2023-09-22T14:24:10.052Z,73.87
2023-09-22T14:26:36.858Z,78.88
2023-09-22T14:29:03.514Z,77.68
2023-09-22T14:31:31.263Z,79.75
2023-09-22T14:33:59.274Z,80.96
2023-09-22T14:36:26.105Z,80.60
2023-09-22T14:38:52.747Z,81.74
2023-09-22T14:41:20.451Z,73.76
2023-09-22T14:43:47.340Z,71.78
2023-09-22T14:46:17.566Z,71.48
2023-09-22T14:48:45.354Z,75.68
2023-09-22T14:51:12.432Z,79.34
2023-09-22T14:53:39.311Z,74.25
2023-09-22T14:56:06.084Z,80.10
2023-09-22T14:58:32.815Z,75.86
2023-09-22T15:00:59.602Z,79.37
2023-09-22T15:03:26.438Z,77.47
2023-09-22T15:05:53.889Z,79.47
2023-09-22T15:08:21.857Z,74.01
2023-09-22T15:10:56.450Z,72.79
2023-09-22T15:13:23.952Z,79.97
2023-09-22T15:15:50.803Z,77.89
2023-09-22T15:18:17.418Z,74.84
2023-09-22T15:20:44.346Z,77.68
2023-09-22T15:23:12.729Z,77.16
2023-09-22T15:25:50.290Z,76.97
2023-09-22T15:28:17.213Z,79.70
2023-09-22T15:30:44.147Z,78.86
2023-09-22T15:33:10.883Z,77.24
2023-09-22T15:35:40.903Z,81.14
2023-09-22T15:38:11.540Z,79.07
2023-09-22T15:40:38.329Z,78.73
2023-09-22T15:43:05.064Z,81.36
2023-09-22T15:45:31.633Z,82.19
2023-09-22T15:47:58.377Z,79.52
2023-09-22T15:50:28.160Z,77.60
2023-09-22T15:52:55.553Z,80.87
2023-09-22T15:55:23.474Z,79.06
2023-09-22T15:57:50.276Z,81.09
2023-09-22T16:00:18.846Z,81.92
2023-09-22T16:02:45.589Z,80.42
2023-09-22T16:05:12.407Z,79.34
2023-09-22T16:07:39.030Z,81.78
2023-09-22T16:10:06.904Z,81.87
2023-09-22T16:12:33.581Z,82.21
2023-09-22T16:15:00.310Z,82.87
2023-09-22T16:17:28.481Z,83.36
2023-09-22T16:19:55.902Z,78.97
2023-09-22T16:22:22.581Z,81.72
2023-09-22T16:24:49.188Z,82.98
2023-09-22T16:27:15.888Z,82.94
2023-09-22T16:29:42.574Z,84.02
2023-09-22T16:32:10.741Z,84.04
2023-09-22T16:34:37.449Z,84.88
2023-09-22T16:37:04.058Z,85.05
2023-09-22T16:39:30.705Z,85.35
2023-09-22T16:41:57.340Z,85.28
2023-09-22T16:44:23.980Z,85.32
2023-09-22T16:46:51.921Z,84.87
2023-09-22T16:49:18.657Z,85.68
2023-09-22T16:51:45.324Z,86.45
2023-09-22T16:54:12.064Z,86.46
2023-09-22T16:56:39.051Z,86.72
2023-09-22T16:59:06.040Z,86.55
2023-09-22T17:01:34.719Z,86.20
2023-09-22T17:04:01.519Z,86.74
2023-09-22T17:06:28.143Z,86.98
2023-09-22T17:08:55.432Z,87.29
2023-09-22T17:11:22.014Z,87.20
2023-09-22T17:13:49.478Z,87.54
2023-09-22T17:16:16.316Z,87.41
2023-09-22T17:18:44.953Z,87.50
2023-09-22T17:21:25.209Z,87.68
2023-09-22T17:23:58.720Z,87.47
2023-09-22T17:26:26.609Z,87.82
2023-09-22T17:28:55.014Z,88.12
2023-09-22T17:31:23.114Z,88.34
2023-09-22T17:33:54.170Z,88.29
2023-09-22T17:36:21.019Z,88.17
2023-09-22T17:38:48.151Z,88.42
2023-09-22T17:41:15.626Z,87.71
2023-09-22T17:43:42.362Z,86.36
2023-09-22T17:46:10.003Z,86.47
2023-09-22T17:48:36.718Z,87.73
2023-09-22T17:51:09.741Z,87.24
2023-09-22T17:53:36.845Z,88.51
2023-09-22T17:56:06.973Z,90.19
2023-09-22T17:58:34.724Z,90.25
2023-09-22T18:01:01.769Z,91.11
2023-09-22T18:03:28.585Z,91.06
2023-09-22T18:06:00.451Z,94.92
2023-09-22T18:08:27.933Z,94.71
2023-09-22T18:10:54.688Z,95.80
2023-09-22T18:13:21.230Z,95.33
2023-09-22T18:15:48.962Z,98.83
2023-09-22T18:18:16.232Z,97.56
2023-09-22T18:20:51.391Z,100.00
2023-09-22T18:23:18.328Z,98.78
2023-09-22T18:25:45.604Z,100.00
2023-09-22T18:28:13.026Z,99.98
2023-09-22T18:30:39.744Z,100.00
2023-09-22T18:33:06.505Z,100.00
2023-09-22T18:35:33.136Z,100.00
2023-09-22T18:38:01.852Z,100.00
2023-09-22T18:40:28.533Z,100.00
2023-09-22T18:42:55.291Z,100.00
2023-09-22T18:45:22.272Z,100.00
2023-09-22T18:47:49.137Z,100.00
2023-09-22T18:50:15.969Z,99.73
2023-09-22T18:52:42.993Z,100.00
2023-09-22T18:55:09.868Z,100.00
2023-09-22T18:57:36.477Z,100.00
2023-09-22T19:00:03.732Z,100.00
2023-09-22T19:02:30.453Z,100.00
2023-09-22T19:04:57.702Z,100.00
2023-09-22T19:07:24.283Z,100.00
2023-09-22T19:09:53.357Z,100.00
2023-09-22T19:12:20.775Z,100.00
2023-09-22T19:14:47.430Z,100.00
2023-09-22T19:17:16.216Z,100.00
2023-09-22T19:19:44.117Z,100.00
2023-09-22T19:22:12.172Z,100.00
2023-09-22T19:24:38.932Z,100.00
2023-09-22T19:27:05.882Z,100.00
2023-09-22T19:29:32.861Z,100.00
2023-09-22T19:32:00.239Z,100.00
2023-09-22T19:34:27.070Z,100.00
2023-09-22T19:36:53.730Z,100.00
2023-09-22T19:39:23.265Z,100.00
2023-09-22T19:41:49.918Z,100.00
2023-09-22T19:44:16.524Z,100.00
2023-09-22T19:46:44.623Z,100.00
2023-09-22T19:49:13.073Z,100.00
2023-09-22T19:51:39.847Z,100.00
2023-09-22T19:54:06.892Z,100.00
2023-09-22T19:56:34.227Z,100.00
2023-09-22T19:59:02.098Z,100.00
2023-09-22T20:01:28.948Z,100.00
2023-09-22T20:03:56.074Z,100.00
2023-09-22T20:06:23.078Z,100.00
2023-09-22T20:08:51.032Z,100.00
2023-09-22T20:11:18.077Z,100.00
2023-09-22T20:13:45.324Z,100.00
2023-09-22T20:16:14.052Z,100.00
2023-09-22T20:18:40.875Z,100.00
2023-09-22T20:21:07.722Z,100.00
2023-09-22T20:23:35.447Z,100.00
2023-09-22T20:26:04.689Z,100.00
2023-09-22T20:28:31.625Z,100.00
2023-09-22T20:31:08.201Z,100.00
2023-09-22T20:33:37.539Z,100.00
2023-09-22T20:36:12.119Z,100.00
2023-09-22T20:38:43.344Z,100.00
2023-09-22T20:41:11.747Z,100.00
2023-09-22T20:43:42.193Z,100.00
2023-09-22T20:46:10.259Z,100.00
2023-09-22T20:48:37.829Z,100.00
2023-09-22T20:51:13.286Z,100.00
2023-09-22T20:53:42.032Z,100.00
2023-09-22T20:56:11.779Z,100.00
2023-09-22T20:58:45.712Z,100.00
2023-09-22T21:01:16.990Z,100.00
2023-09-22T21:03:44.865Z,100.00
2023-09-22T21:06:11.886Z,100.00
2023-09-22T21:08:38.597Z,100.00
2023-09-22T21:11:05.358Z,100.00
2023-09-22T21:13:33.115Z,100.00
2023-09-22T21:16:00.840Z,100.00
2023-09-22T21:18:31.949Z,100.00
2023-09-22T21:21:05.865Z,100.00
2023-09-22T21:23:32.925Z,100.00
2023-09-22T21:26:03.282Z,100.00
2023-09-22T21:28:30.560Z,100.00
2023-09-22T21:31:00.531Z,100.00
2023-09-22T21:33:27.671Z,100.00
2023-09-22T21:35:55.810Z,100.00
2023-09-22T21:38:22.487Z,100.00
2023-09-22T21:40:49.085Z,100.00
2023-09-22T21:43:15.821Z,100.00
2023-09-22T21:45:43.756Z,100.00
2023-09-22T21:48:12.118Z,100.00
2023-09-22T21:50:42.452Z,100.00
2023-09-22T21:53:09.579Z,100.00
2023-09-22T21:55:36.381Z,100.00
2023-09-22T21:58:03.062Z,100.00
2023-09-22T22:00:29.693Z,100.00
2023-09-22T22:02:56.631Z,100.00
2023-09-22T22:05:24.157Z,100.00
2023-09-22T22:07:53.064Z,100.00
2023-09-22T22:10:19.832Z,100.00
2023-09-22T22:12:47.875Z,100.00
2023-09-22T22:15:15.622Z,100.00
2023-09-22T22:17:42.405Z,100.00
2023-09-22T22:20:16.657Z,100.00
2023-09-22T22:22:43.586Z,100.00
2023-09-22T22:25:12.981Z,100.00
2023-09-22T22:27:39.923Z,100.00
2023-09-22T22:30:07.202Z,100.00
2023-09-22T22:32:35.024Z,100.00
2023-09-22T22:35:02.452Z,100.00
2023-09-22T22:37:29.230Z,100.00
2023-09-22T22:39:55.966Z,100.00
2023-09-22T22:42:22.588Z,100.00
2023-09-22T22:44:49.309Z,100.00
2023-09-22T22:47:16.035Z,100.00
2023-09-22T22:49:42.781Z,100.00
2023-09-22T22:52:10.172Z,100.00
2023-09-22T22:54:38.348Z,100.00
2023-09-22T22:57:06.516Z,100.00
2023-09-22T22:59:36.208Z,100.00
2023-09-22T23:02:04.816Z,100.00
2023-09-22T23:04:32.384Z,100.00
2023-09-22T23:06:59.450Z,100.00
2023-09-22T23:09:26.130Z,100.00
2023-09-22T23:11:55.689Z,100.00
2023-09-22T23:14:24.057Z,100.00
2023-09-22T23:16:52.255Z,100.00
2023-09-22T23:19:19.885Z,100.00
2023-09-22T23:21:47.027Z,100.00
2023-09-22T23:24:14.744Z,100.00
2023-09-22T23:26:44.908Z,100.00
2023-09-22T23:29:13.193Z,100.00
2023-09-22T23:31:41.493Z,100.00
2023-09-22T23:34:11.908Z,100.00
2023-09-22T23:36:40.339Z,100.00
2023-09-22T23:39:09.680Z,100.00
2023-09-22T23:41:43.936Z,100.00
2023-09-22T23:44:13.296Z,100.00
2023-09-22T23:46:40.887Z,100.00
2023-09-22T23:49:10.604Z,100.00
2023-09-22T23:51:38.088Z,100.00
2023-09-22T23:54:05.097Z,100.00
2023-09-22T23:56:31.836Z,100.00
2023-09-22T23:58:58.494Z,100.00
